sensor_id;sensor_type;location;lat;lon;timestamp;temperature;humidity
25652;DHT22;13508;50.734;4.232;2024-01-15T00:01:47;2.00;99.90
25652;DHT22;13508;50.734;4.232;2024-01-15T00:04:53;2.10;99.90
25652;DHT22;13508;50.734;4.232;2024-01-15T00:07:59;2.00;99.90
25652;DHT22;13508;50.734;4.232;2024-01-15T00:11:04;1.90;99.90
25652;DHT22;13508;50.734;4.232;2024-01-15T00:14:08;2.00;99.90
25652;DHT22;13508;50.734;4.232;2024-01-15T00:17:12;1.90;99.90
25652;DHT22;13508;50.734;4.232;2024-01-15T00:20:15;1.90;99.90
25652;DHT22;13508;50.734;4.232;2024-01-15T00:23:19;2.00;99.90
25652;DHT22;13508;50.734;4.232;2024-01-15T00:26:22;1.90;99.90
25652;DHT22;13508;50.734;4.232;2024-01-15T00:29:26;1.90;99.90
25652;DHT22;13508;50.734;4.232;2024-01-15T00:32:32;1.80;99.90
25652;DHT22;13508;50.734;4.232;2024-01-15T00:35:35;1.70;99.90
25652;DHT22;13508;50.734;4.232;2024-01-15T00:38:39;1.80;99.90
25652;DHT22;13508;50.734;4.232;2024-01-15T00:41:42;1.70;99.90
25652;DHT22;13508;50.734;4.232;2024-01-15T00:44:46;1.70;99.90
25652;DHT22;13508;50.734;4.232;2024-01-15T00:47:52;1.50;99.90
25652;DHT22;13508;50.734;4.232;2024-01-15T00:50:56;1.40;99.90
25652;DHT22;13508;50.734;4.232;2024-01-15T00:54:02;1.40;99.90
25652;DHT22;13508;50.734;4.232;2024-01-15T00:57:06;1.50;99.90
25652;DHT22;13508;50.734;4.232;2024-01-15T01:00:10;1.40;99.90
25652;DHT22;13508;50.734;4.232;2024-01-15T01:03:13;1.40;99.90
25652;DHT22;13508;50.734;4.232;2024-01-15T01:06:18;1.50;99.90
25652;DHT22;13508;50.734;4.232;2024-01-15T01:09:21;1.60;99.90
25652;DHT22;13508;50.734;4.232;2024-01-15T01:12:24;1.70;99.90
25652;DHT22;13508;50.734;4.232;2024-01-15T01:15:28;1.70;99.90
25652;DHT22;13508;50.734;4.232;2024-01-15T01:18:31;1.70;99.90
25652;DHT22;13508;50.734;4.232;2024-01-15T01:21:37;1.70;99.90
25652;DHT22;13508;50.734;4.232;2024-01-15T01:24:40;1.80;99.90
25652;DHT22;13508;50.734;4.232;2024-01-15T01:27:48;1.80;99.90
25652;DHT22;13508;50.734;4.232;2024-01-15T01:30:51;1.70;99.90
25652;DHT22;13508;50.734;4.232;2024-01-15T01:33:54;1.70;99.90
25652;DHT22;13508;50.734;4.232;2024-01-15T01:36:58;1.70;99.90
25652;DHT22;13508;50.734;4.232;2024-01-15T01:40:02;1.90;99.90
25652;DHT22;13508;50.734;4.232;2024-01-15T01:43:06;1.90;99.90
25652;DHT22;13508;50.734;4.232;2024-01-15T01:46:09;1.80;99.90
25652;DHT22;13508;50.734;4.232;2024-01-15T01:49:13;1.80;99.90
25652;DHT22;13508;50.734;4.232;2024-01-15T01:52:16;1.80;99.90
25652;DHT22;13508;50.734;4.232;2024-01-15T01:55:21;1.90;99.90
25652;DHT22;13508;50.734;4.232;2024-01-15T01:58:25;1.90;99.90
25652;DHT22;13508;50.734;4.232;2024-01-15T02:01:30;2.00;99.90
25652;DHT22;13508;50.734;4.232;2024-01-15T02:04:34;1.90;99.90
25652;DHT22;13508;50.734;4.232;2024-01-15T02:07:41;2.00;99.90
25652;DHT22;13508;50.734;4.232;2024-01-15T02:10:44;2.10;99.90
25652;DHT22;13508;50.734;4.232;2024-01-15T02:13:47;2.10;99.90
25652;DHT22;13508;50.734;4.232;2024-01-15T02:16:51;2.20;99.90
25652;DHT22;13508;50.734;4.232;2024-01-15T02:19:54;2.20;99.90
25652;DHT22;13508;50.734;4.232;2024-01-15T02:23:11;2.20;99.90
25652;DHT22;13508;50.734;4.232;2024-01-15T02:26:14;2.20;99.90
25652;DHT22;13508;50.734;4.232;2024-01-15T02:29:18;2.20;99.90
25652;DHT22;13508;50.734;4.232;2024-01-15T02:32:21;2.10;99.90
25652;DHT22;13508;50.734;4.232;2024-01-15T02:35:25;2.20;99.90
25652;DHT22;13508;50.734;4.232;2024-01-15T02:38:28;2.30;99.90
25652;DHT22;13508;50.734;4.232;2024-01-15T02:41:31;2.40;99.90
25652;DHT22;13508;50.734;4.232;2024-01-15T02:44:37;2.40;99.90
25652;DHT22;13508;50.734;4.232;2024-01-15T02:47:43;2.40;99.90
25652;DHT22;13508;50.734;4.232;2024-01-15T02:50:46;2.10;99.90
25652;DHT22;13508;50.734;4.232;2024-01-15T02:53:51;2.10;99.90
25652;DHT22;13508;50.734;4.232;2024-01-15T02:56:55;1.80;99.90
25652;DHT22;13508;50.734;4.232;2024-01-15T03:00:01;1.80;99.90
25652;DHT22;13508;50.734;4.232;2024-01-15T03:03:05;2.00;99.90
25652;DHT22;13508;50.734;4.232;2024-01-15T03:06:08;2.10;99.90
25652;DHT22;13508;50.734;4.232;2024-01-15T03:09:11;2.10;99.90
25652;DHT22;13508;50.734;4.232;2024-01-15T03:12:15;1.90;99.90
25652;DHT22;13508;50.734;4.232;2024-01-15T03:15:19;2.00;99.90
25652;DHT22;13508;50.734;4.232;2024-01-15T03:18:23;2.00;99.90
25652;DHT22;13508;50.734;4.232;2024-01-15T03:21:26;2.00;99.90
25652;DHT22;13508;50.734;4.232;2024-01-15T03:24:31;2.10;99.90
25652;DHT22;13508;50.734;4.232;2024-01-15T03:27:35;1.90;99.90
25652;DHT22;13508;50.734;4.232;2024-01-15T03:30:38;2.00;99.90
25652;DHT22;13508;50.734;4.232;2024-01-15T03:33:41;2.10;99.90
25652;DHT22;13508;50.734;4.232;2024-01-15T03:36:45;2.10;99.90
25652;DHT22;13508;50.734;4.232;2024-01-15T03:39:48;2.10;99.90
25652;DHT22;13508;50.734;4.232;2024-01-15T03:42:53;2.00;99.90
25652;DHT22;13508;50.734;4.232;2024-01-15T03:45:59;1.90;99.90
25652;DHT22;13508;50.734;4.232;2024-01-15T03:49:02;1.90;99.90
25652;DHT22;13508;50.734;4.232;2024-01-15T03:52:06;1.90;99.90
25652;DHT22;13508;50.734;4.232;2024-01-15T03:55:09;1.90;99.90
25652;DHT22;13508;50.734;4.232;2024-01-15T03:58:13;2.00;99.90
25652;DHT22;13508;50.734;4.232;2024-01-15T04:01:18;2.10;99.90
25652;DHT22;13508;50.734;4.232;2024-01-15T04:04:22;2.00;99.90
25652;DHT22;13508;50.734;4.232;2024-01-15T04:07:25;2.10;99.90
25652;DHT22;13508;50.734;4.232;2024-01-15T04:10:28;2.00;99.90
25652;DHT22;13508;50.734;4.232;2024-01-15T04:13:34;2.20;99.90
25652;DHT22;13508;50.734;4.232;2024-01-15T04:16:38;2.30;99.90
25652;DHT22;13508;50.734;4.232;2024-01-15T04:19:43;2.40;99.90
25652;DHT22;13508;50.734;4.232;2024-01-15T04:22:49;2.40;99.90
25652;DHT22;13508;50.734;4.232;2024-01-15T04:25:52;2.30;99.90
25652;DHT22;13508;50.734;4.232;2024-01-15T04:28:56;2.00;99.90
25652;DHT22;13508;50.734;4.232;2024-01-15T04:31:59;2.00;99.90
25652;DHT22;13508;50.734;4.232;2024-01-15T04:35:03;1.90;99.90
25652;DHT22;13508;50.734;4.232;2024-01-15T04:38:07;1.80;99.90
25652;DHT22;13508;50.734;4.232;2024-01-15T04:41:16;1.90;99.90
25652;DHT22;13508;50.734;4.232;2024-01-15T04:44:20;1.70;99.90
25652;DHT22;13508;50.734;4.232;2024-01-15T04:47:28;1.70;99.90
25652;DHT22;13508;50.734;4.232;2024-01-15T04:50:31;1.70;99.90
25652;DHT22;13508;50.734;4.232;2024-01-15T04:53:35;1.80;99.90
25652;DHT22;13508;50.734;4.232;2024-01-15T04:56:43;1.80;99.90
25652;DHT22;13508;50.734;4.232;2024-01-15T04:59:47;1.80;99.90
25652;DHT22;13508;50.734;4.232;2024-01-15T05:02:51;1.80;99.90
25652;DHT22;13508;50.734;4.232;2024-01-15T05:05:55;1.80;99.90
25652;DHT22;13508;50.734;4.232;2024-01-15T05:08:58;1.80;99.90
25652;DHT22;13508;50.734;4.232;2024-01-15T05:12:04;1.90;99.90
25652;DHT22;13508;50.734;4.232;2024-01-15T05:15:07;1.90;99.90
25652;DHT22;13508;50.734;4.232;2024-01-15T05:18:11;2.00;99.90
25652;DHT22;13508;50.734;4.232;2024-01-15T05:21:14;1.90;99.90
25652;DHT22;13508;50.734;4.232;2024-01-15T05:24:18;1.90;99.90
25652;DHT22;13508;50.734;4.232;2024-01-15T05:27:21;2.00;99.90
25652;DHT22;13508;50.734;4.232;2024-01-15T05:30:24;1.90;99.90
25652;DHT22;13508;50.734;4.232;2024-01-15T05:33:28;2.00;99.90
25652;DHT22;13508;50.734;4.232;2024-01-15T05:36:36;2.10;99.90
25652;DHT22;13508;50.734;4.232;2024-01-15T05:39:39;2.10;99.90
25652;DHT22;13508;50.734;4.232;2024-01-15T05:42:43;2.00;99.90
25652;DHT22;13508;50.734;4.232;2024-01-15T05:45:46;2.00;99.90
25652;DHT22;13508;50.734;4.232;2024-01-15T05:48:52;2.10;99.90
25652;DHT22;13508;50.734;4.232;2024-01-15T05:51:55;2.10;99.90
25652;DHT22;13508;50.734;4.232;2024-01-15T05:54:59;2.10;99.90
25652;DHT22;13508;50.734;4.232;2024-01-15T05:58:02;2.20;99.90
25652;DHT22;13508;50.734;4.232;2024-01-15T06:01:05;2.20;99.90
25652;DHT22;13508;50.734;4.232;2024-01-15T06:04:09;2.10;99.90
25652;DHT22;13508;50.734;4.232;2024-01-15T06:07:12;2.10;99.90
25652;DHT22;13508;50.734;4.232;2024-01-15T06:10:16;2.10;99.90
25652;DHT22;13508;50.734;4.232;2024-01-15T06:13:19;2.10;99.90
25652;DHT22;13508;50.734;4.232;2024-01-15T06:16:25;2.10;99.90
25652;DHT22;13508;50.734;4.232;2024-01-15T06:19:28;1.90;99.90
25652;DHT22;13508;50.734;4.232;2024-01-15T06:22:32;1.90;99.90
25652;DHT22;13508;50.734;4.232;2024-01-15T06:25:35;1.80;99.90
25652;DHT22;13508;50.734;4.232;2024-01-15T06:28:41;1.70;99.90
25652;DHT22;13508;50.734;4.232;2024-01-15T06:31:45;1.80;99.90
25652;DHT22;13508;50.734;4.232;2024-01-15T06:34:48;1.90;99.90
25652;DHT22;13508;50.734;4.232;2024-01-15T06:37:52;1.90;99.90
25652;DHT22;13508;50.734;4.232;2024-01-15T06:40:55;2.00;99.90
25652;DHT22;13508;50.734;4.232;2024-01-15T06:43:59;2.10;99.90
25652;DHT22;13508;50.734;4.232;2024-01-15T06:47:02;2.00;99.90
25652;DHT22;13508;50.734;4.232;2024-01-15T06:50:06;1.80;99.90
25652;DHT22;13508;50.734;4.232;2024-01-15T06:53:12;1.80;99.90
25652;DHT22;13508;50.734;4.232;2024-01-15T06:56:15;1.80;99.90
25652;DHT22;13508;50.734;4.232;2024-01-15T06:59:21;1.70;99.90
25652;DHT22;13508;50.734;4.232;2024-01-15T07:02:25;1.70;99.90
25652;DHT22;13508;50.734;4.232;2024-01-15T07:05:30;1.60;99.90
25652;DHT22;13508;50.734;4.232;2024-01-15T07:08:36;1.60;99.90
25652;DHT22;13508;50.734;4.232;2024-01-15T07:11:45;1.60;99.90
25652;DHT22;13508;50.734;4.232;2024-01-15T07:14:52;1.50;99.90
25652;DHT22;13508;50.734;4.232;2024-01-15T07:17:55;1.60;99.90
25652;DHT22;13508;50.734;4.232;2024-01-15T07:20:58;1.50;99.90
25652;DHT22;13508;50.734;4.232;2024-01-15T07:24:02;1.50;99.90
25652;DHT22;13508;50.734;4.232;2024-01-15T07:27:05;1.50;99.90
25652;DHT22;13508;50.734;4.232;2024-01-15T07:30:09;1.50;99.90
25652;DHT22;13508;50.734;4.232;2024-01-15T07:33:13;1.40;99.90
25652;DHT22;13508;50.734;4.232;2024-01-15T07:36:16;1.40;99.90
25652;DHT22;13508;50.734;4.232;2024-01-15T07:39:20;1.40;99.90
25652;DHT22;13508;50.734;4.232;2024-01-15T07:42:27;1.30;99.90
25652;DHT22;13508;50.734;4.232;2024-01-15T07:45:33;1.30;99.90
25652;DHT22;13508;50.734;4.232;2024-01-15T07:48:36;1.40;99.90
25652;DHT22;13508;50.734;4.232;2024-01-15T07:51:40;1.30;99.90
25652;DHT22;13508;50.734;4.232;2024-01-15T07:54:43;1.30;99.90
25652;DHT22;13508;50.734;4.232;2024-01-15T07:57:47;1.30;99.90
25652;DHT22;13508;50.734;4.232;2024-01-15T08:00:50;1.40;99.90
25652;DHT22;13508;50.734;4.232;2024-01-15T08:03:54;1.30;99.90
25652;DHT22;13508;50.734;4.232;2024-01-15T08:06:58;1.40;99.90
25652;DHT22;13508;50.734;4.232;2024-01-15T08:10:04;1.40;99.90
25652;DHT22;13508;50.734;4.232;2024-01-15T08:13:07;1.40;99.90
25652;DHT22;13508;50.734;4.232;2024-01-15T08:16:12;1.50;99.90
25652;DHT22;13508;50.734;4.232;2024-01-15T08:19:17;1.50;99.90
25652;DHT22;13508;50.734;4.232;2024-01-15T08:22:23;1.50;99.90
25652;DHT22;13508;50.734;4.232;2024-01-15T08:25:29;1.40;99.90
25652;DHT22;13508;50.734;4.232;2024-01-15T08:28:32;1.40;99.90
25652;DHT22;13508;50.734;4.232;2024-01-15T08:31:38;1.50;99.90
25652;DHT22;13508;50.734;4.232;2024-01-15T08:34:41;1.60;99.90
25652;DHT22;13508;50.734;4.232;2024-01-15T08:37:47;1.70;99.90
25652;DHT22;13508;50.734;4.232;2024-01-15T08:40:51;1.50;99.90
25652;DHT22;13508;50.734;4.232;2024-01-15T08:43:59;1.50;99.90
25652;DHT22;13508;50.734;4.232;2024-01-15T08:47:03;1.60;99.90
25652;DHT22;13508;50.734;4.232;2024-01-15T08:50:06;1.60;99.90
25652;DHT22;13508;50.734;4.232;2024-01-15T08:53:12;1.60;99.90
25652;DHT22;13508;50.734;4.232;2024-01-15T08:56:16;1.60;99.90
25652;DHT22;13508;50.734;4.232;2024-01-15T08:59:22;1.60;99.90
25652;DHT22;13508;50.734;4.232;2024-01-15T09:02:29;1.50;99.90
25652;DHT22;13508;50.734;4.232;2024-01-15T09:05:35;1.50;99.90
25652;DHT22;13508;50.734;4.232;2024-01-15T09:08:38;1.60;99.90
25652;DHT22;13508;50.734;4.232;2024-01-15T09:11:46;1.70;99.90
25652;DHT22;13508;50.734;4.232;2024-01-15T09:14:50;1.50;99.90
25652;DHT22;13508;50.734;4.232;2024-01-15T09:17:55;1.60;99.90
25652;DHT22;13508;50.734;4.232;2024-01-15T09:21:03;1.60;99.90
25652;DHT22;13508;50.734;4.232;2024-01-15T09:24:06;1.70;99.90
25652;DHT22;13508;50.734;4.232;2024-01-15T09:27:10;1.70;99.90
25652;DHT22;13508;50.734;4.232;2024-01-15T09:30:13;1.70;99.90
25652;DHT22;13508;50.734;4.232;2024-01-15T09:33:16;1.70;99.90
25652;DHT22;13508;50.734;4.232;2024-01-15T09:36:20;1.80;99.90
25652;DHT22;13508;50.734;4.232;2024-01-15T09:39:23;1.90;99.90
25652;DHT22;13508;50.734;4.232;2024-01-15T09:42:27;1.90;99.90
25652;DHT22;13508;50.734;4.232;2024-01-15T09:45:31;1.90;99.90
25652;DHT22;13508;50.734;4.232;2024-01-15T09:48:35;2.00;99.90
25652;DHT22;13508;50.734;4.232;2024-01-15T09:51:39;2.00;99.90
25652;DHT22;13508;50.734;4.232;2024-01-15T09:54:46;2.10;99.90
25652;DHT22;13508;50.734;4.232;2024-01-15T09:57:50;2.10;99.90
25652;DHT22;13508;50.734;4.232;2024-01-15T10:00:55;2.10;99.90
25652;DHT22;13508;50.734;4.232;2024-01-15T10:03:59;2.10;99.90
25652;DHT22;13508;50.734;4.232;2024-01-15T10:07:03;2.00;99.90
25652;DHT22;13508;50.734;4.232;2024-01-15T10:10:08;2.00;99.90
25652;DHT22;13508;50.734;4.232;2024-01-15T10:13:12;2.10;99.90
25652;DHT22;13508;50.734;4.232;2024-01-15T10:16:16;2.20;99.90
25652;DHT22;13508;50.734;4.232;2024-01-15T10:19:19;2.40;99.90
25652;DHT22;13508;50.734;4.232;2024-01-15T10:22:23;2.40;99.90
25652;DHT22;13508;50.734;4.232;2024-01-15T10:25:29;2.50;99.90
25652;DHT22;13508;50.734;4.232;2024-01-15T10:28:33;2.60;99.90
25652;DHT22;13508;50.734;4.232;2024-01-15T10:31:37;2.60;99.90
25652;DHT22;13508;50.734;4.232;2024-01-15T10:34:41;2.60;99.90
25652;DHT22;13508;50.734;4.232;2024-01-15T10:37:47;2.50;99.90
25652;DHT22;13508;50.734;4.232;2024-01-15T10:40:52;2.60;99.90
25652;DHT22;13508;50.734;4.232;2024-01-15T10:43:56;2.60;99.90
25652;DHT22;13508;50.734;4.232;2024-01-15T10:47:01;2.70;99.90
25652;DHT22;13508;50.734;4.232;2024-01-15T10:50:05;2.70;99.90
25652;DHT22;13508;50.734;4.232;2024-01-15T10:53:12;2.80;99.90
25652;DHT22;13508;50.734;4.232;2024-01-15T10:56:17;2.90;99.90
25652;DHT22;13508;50.734;4.232;2024-01-15T10:59:21;3.10;99.90
25652;DHT22;13508;50.734;4.232;2024-01-15T11:02:25;3.10;99.90
25652;DHT22;13508;50.734;4.232;2024-01-15T11:05:44;3.20;99.90
25652;DHT22;13508;50.734;4.232;2024-01-15T11:08:52;3.20;99.90
25652;DHT22;13508;50.734;4.232;2024-01-15T11:12:10;3.20;99.90
25652;DHT22;13508;50.734;4.232;2024-01-15T11:15:19;3.10;99.90
25652;DHT22;13508;50.734;4.232;2024-01-15T11:18:35;3.20;99.90
25652;DHT22;13508;50.734;4.232;2024-01-15T11:21:42;3.30;99.90
25652;DHT22;13508;50.734;4.232;2024-01-15T11:24:48;3.40;99.90
25652;DHT22;13508;50.734;4.232;2024-01-15T11:27:52;3.40;99.90
25652;DHT22;13508;50.734;4.232;2024-01-15T11:30:56;3.40;99.90
25652;DHT22;13508;50.734;4.232;2024-01-15T11:34:00;3.40;99.90
25652;DHT22;13508;50.734;4.232;2024-01-15T11:37:03;3.60;99.90
25652;DHT22;13508;50.734;4.232;2024-01-15T11:40:07;3.60;99.90
25652;DHT22;13508;50.734;4.232;2024-01-15T11:43:15;3.60;99.90
25652;DHT22;13508;50.734;4.232;2024-01-15T11:46:25;3.60;99.90
25652;DHT22;13508;50.734;4.232;2024-01-15T11:53:02;3.30;99.90
25652;DHT22;13508;50.734;4.232;2024-01-15T11:56:14;3.20;99.90
25652;DHT22;13508;50.734;4.232;2024-01-15T11:59:18;3.10;99.90
25652;DHT22;13508;50.734;4.232;2024-01-15T12:02:21;3.00;99.90
25652;DHT22;13508;50.734;4.232;2024-01-15T12:05:25;3.20;99.90
25652;DHT22;13508;50.734;4.232;2024-01-15T12:08:28;3.40;99.90
25652;DHT22;13508;50.734;4.232;2024-01-15T12:11:34;4.20;99.90
25652;DHT22;13508;50.734;4.232;2024-01-15T12:14:39;4.80;99.90
25652;DHT22;13508;50.734;4.232;2024-01-15T12:17:43;5.20;99.90
25652;DHT22;13508;50.734;4.232;2024-01-15T12:20:46;5.20;99.90
25652;DHT22;13508;50.734;4.232;2024-01-15T12:23:49;5.30;99.90
25652;DHT22;13508;50.734;4.232;2024-01-15T12:26:55;4.80;99.90
25652;DHT22;13508;50.734;4.232;2024-01-15T12:29:59;4.40;99.90
25652;DHT22;13508;50.734;4.232;2024-01-15T12:33:03;4.10;99.90
25652;DHT22;13508;50.734;4.232;2024-01-15T12:36:07;4.40;99.90
25652;DHT22;13508;50.734;4.232;2024-01-15T12:39:14;4.60;99.90
25652;DHT22;13508;50.734;4.232;2024-01-15T12:42:18;4.30;99.90
25652;DHT22;13508;50.734;4.232;2024-01-15T12:45:24;4.60;99.90
25652;DHT22;13508;50.734;4.232;2024-01-15T12:48:27;4.80;99.90
25652;DHT22;13508;50.734;4.232;2024-01-15T12:51:36;4.60;99.90
25652;DHT22;13508;50.734;4.232;2024-01-15T12:54:42;4.30;99.90
25652;DHT22;13508;50.734;4.232;2024-01-15T12:57:46;4.40;99.90
25652;DHT22;13508;50.734;4.232;2024-01-15T13:00:49;4.30;99.90
25652;DHT22;13508;50.734;4.232;2024-01-15T13:03:53;4.20;99.90
25652;DHT22;13508;50.734;4.232;2024-01-15T13:06:57;4.20;99.90
25652;DHT22;13508;50.734;4.232;2024-01-15T13:10:03;4.00;99.90
25652;DHT22;13508;50.734;4.232;2024-01-15T13:13:07;3.80;99.90
25652;DHT22;13508;50.734;4.232;2024-01-15T13:16:10;3.80;99.90
25652;DHT22;13508;50.734;4.232;2024-01-15T13:19:14;3.80;99.90
25652;DHT22;13508;50.734;4.232;2024-01-15T13:22:20;3.70;99.90
25652;DHT22;13508;50.734;4.232;2024-01-15T13:25:24;3.80;99.90
25652;DHT22;13508;50.734;4.232;2024-01-15T13:28:30;3.90;99.90
25652;DHT22;13508;50.734;4.232;2024-01-15T13:31:33;4.00;99.90
25652;DHT22;13508;50.734;4.232;2024-01-15T13:34:37;4.20;99.90
25652;DHT22;13508;50.734;4.232;2024-01-15T13:37:41;4.10;99.90
25652;DHT22;13508;50.734;4.232;2024-01-15T13:40:44;4.30;99.90
25652;DHT22;13508;50.734;4.232;2024-01-15T13:43:49;4.60;99.90
25652;DHT22;13508;50.734;4.232;2024-01-15T13:46:53;4.60;99.90
25652;DHT22;13508;50.734;4.232;2024-01-15T13:49:57;4.40;99.90
25652;DHT22;13508;50.734;4.232;2024-01-15T13:53:03;4.20;99.90
25652;DHT22;13508;50.734;4.232;2024-01-15T13:56:07;4.40;99.90
25652;DHT22;13508;50.734;4.232;2024-01-15T13:59:13;4.20;99.90
25652;DHT22;13508;50.734;4.232;2024-01-15T14:02:16;4.10;99.90
25652;DHT22;13508;50.734;4.232;2024-01-15T14:05:20;4.00;99.90
25652;DHT22;13508;50.734;4.232;2024-01-15T14:08:24;3.90;99.90
25652;DHT22;13508;50.734;4.232;2024-01-15T14:11:27;3.80;99.90
25652;DHT22;13508;50.734;4.232;2024-01-15T14:14:31;3.80;99.90
25652;DHT22;13508;50.734;4.232;2024-01-15T14:17:35;3.80;99.90
25652;DHT22;13508;50.734;4.232;2024-01-15T14:20:38;3.60;99.90
25652;DHT22;13508;50.734;4.232;2024-01-15T14:23:42;3.70;99.90
25652;DHT22;13508;50.734;4.232;2024-01-15T14:26:47;3.50;99.90
25652;DHT22;13508;50.734;4.232;2024-01-15T14:29:50;3.60;99.90
25652;DHT22;13508;50.734;4.232;2024-01-15T14:32:54;3.50;99.90
25652;DHT22;13508;50.734;4.232;2024-01-15T14:35:57;3.40;99.90
25652;DHT22;13508;50.734;4.232;2024-01-15T14:39:03;3.30;99.90
25652;DHT22;13508;50.734;4.232;2024-01-15T14:42:06;3.40;99.90
25652;DHT22;13508;50.734;4.232;2024-01-15T14:45:12;3.40;99.90
25652;DHT22;13508;50.734;4.232;2024-01-15T14:48:15;3.40;99.90
25652;DHT22;13508;50.734;4.232;2024-01-15T14:51:19;3.50;99.90
25652;DHT22;13508;50.734;4.232;2024-01-15T14:54:22;3.50;99.90
25652;DHT22;13508;50.734;4.232;2024-01-15T14:57:25;3.50;99.90
25652;DHT22;13508;50.734;4.232;2024-01-15T15:00:29;3.50;99.90
25652;DHT22;13508;50.734;4.232;2024-01-15T15:03:35;3.50;99.90
25652;DHT22;13508;50.734;4.232;2024-01-15T15:06:38;3.60;99.90
25652;DHT22;13508;50.734;4.232;2024-01-15T15:09:41;3.60;99.90
25652;DHT22;13508;50.734;4.232;2024-01-15T15:12:45;3.60;99.90
25652;DHT22;13508;50.734;4.232;2024-01-15T15:15:49;3.80;99.90
25652;DHT22;13508;50.734;4.232;2024-01-15T15:18:52;3.90;99.90
25652;DHT22;13508;50.734;4.232;2024-01-15T15:22:01;3.30;99.90
25652;DHT22;13508;50.734;4.232;2024-01-15T15:25:05;2.70;99.90
25652;DHT22;13508;50.734;4.232;2024-01-15T15:28:11;2.70;99.90
25652;DHT22;13508;50.734;4.232;2024-01-15T15:31:14;2.60;99.90
25652;DHT22;13508;50.734;4.232;2024-01-15T15:34:23;2.30;99.90
25652;DHT22;13508;50.734;4.232;2024-01-15T15:37:27;2.20;99.90
25652;DHT22;13508;50.734;4.232;2024-01-15T15:40:30;2.00;99.90
25652;DHT22;13508;50.734;4.232;2024-01-15T15:43:34;2.10;99.90
25652;DHT22;13508;50.734;4.232;2024-01-15T15:46:37;2.00;99.90
25652;DHT22;13508;50.734;4.232;2024-01-15T15:49:41;2.20;99.90
25652;DHT22;13508;50.734;4.232;2024-01-15T15:52:45;2.30;99.90
25652;DHT22;13508;50.734;4.232;2024-01-15T15:55:48;2.50;99.90
25652;DHT22;13508;50.734;4.232;2024-01-15T15:58:54;2.50;99.90
25652;DHT22;13508;50.734;4.232;2024-01-15T16:01:58;2.50;99.90
25652;DHT22;13508;50.734;4.232;2024-01-15T16:05:02;2.60;99.90
25652;DHT22;13508;50.734;4.232;2024-01-15T16:08:12;2.50;99.90
25652;DHT22;13508;50.734;4.232;2024-01-15T16:11:16;2.50;99.90
25652;DHT22;13508;50.734;4.232;2024-01-15T16:14:19;2.30;99.90
25652;DHT22;13508;50.734;4.232;2024-01-15T16:17:22;2.20;99.90
25652;DHT22;13508;50.734;4.232;2024-01-15T16:20:26;2.10;99.90
25652;DHT22;13508;50.734;4.232;2024-01-15T16:23:30;2.10;99.90
25652;DHT22;13508;50.734;4.232;2024-01-15T16:26:33;2.10;99.90
25652;DHT22;13508;50.734;4.232;2024-01-15T16:29:39;2.00;99.90
25652;DHT22;13508;50.734;4.232;2024-01-15T16:32:42;2.00;99.90
25652;DHT22;13508;50.734;4.232;2024-01-15T16:35:46;2.00;99.90
25652;DHT22;13508;50.734;4.232;2024-01-15T16:38:49;2.00;99.90
25652;DHT22;13508;50.734;4.232;2024-01-15T16:41:55;2.00;99.90
25652;DHT22;13508;50.734;4.232;2024-01-15T16:45:01;1.90;99.90
25652;DHT22;13508;50.734;4.232;2024-01-15T16:48:06;1.90;99.90
25652;DHT22;13508;50.734;4.232;2024-01-15T16:51:11;1.90;99.90
25652;DHT22;13508;50.734;4.232;2024-01-15T16:54:18;1.90;99.90
25652;DHT22;13508;50.734;4.232;2024-01-15T16:57:21;2.00;99.90
25652;DHT22;13508;50.734;4.232;2024-01-15T17:00:26;2.00;99.90
25652;DHT22;13508;50.734;4.232;2024-01-15T17:03:29;2.00;99.90
25652;DHT22;13508;50.734;4.232;2024-01-15T17:06:36;1.90;99.90
25652;DHT22;13508;50.734;4.232;2024-01-15T17:09:39;2.10;99.90
25652;DHT22;13508;50.734;4.232;2024-01-15T17:12:43;2.20;99.90
25652;DHT22;13508;50.734;4.232;2024-01-15T17:15:46;2.20;99.90
25652;DHT22;13508;50.734;4.232;2024-01-15T17:18:50;2.20;99.90
25652;DHT22;13508;50.734;4.232;2024-01-15T17:21:53;2.30;99.90
25652;DHT22;13508;50.734;4.232;2024-01-15T17:24:58;2.30;99.90
25652;DHT22;13508;50.734;4.232;2024-01-15T17:28:01;2.30;99.90
25652;DHT22;13508;50.734;4.232;2024-01-15T17:31:04;2.30;99.90
25652;DHT22;13508;50.734;4.232;2024-01-15T17:34:08;2.30;99.90
25652;DHT22;13508;50.734;4.232;2024-01-15T17:37:13;2.30;99.90
25652;DHT22;13508;50.734;4.232;2024-01-15T17:40:18;2.20;99.90
25652;DHT22;13508;50.734;4.232;2024-01-15T17:43:22;2.10;99.90
25652;DHT22;13508;50.734;4.232;2024-01-15T17:46:25;2.10;99.90
25652;DHT22;13508;50.734;4.232;2024-01-15T17:49:29;2.10;99.90
25652;DHT22;13508;50.734;4.232;2024-01-15T17:52:33;2.00;99.90
25652;DHT22;13508;50.734;4.232;2024-01-15T17:55:37;2.00;99.90
25652;DHT22;13508;50.734;4.232;2024-01-15T17:58:42;2.10;99.90
25652;DHT22;13508;50.734;4.232;2024-01-15T18:01:46;2.10;99.90
25652;DHT22;13508;50.734;4.232;2024-01-15T18:04:50;2.10;99.90
25652;DHT22;13508;50.734;4.232;2024-01-15T18:07:53;2.10;99.90
25652;DHT22;13508;50.734;4.232;2024-01-15T18:10:57;2.20;99.90
25652;DHT22;13508;50.734;4.232;2024-01-15T18:14:01;2.20;99.90
25652;DHT22;13508;50.734;4.232;2024-01-15T18:17:04;2.20;99.90
25652;DHT22;13508;50.734;4.232;2024-01-15T18:20:09;2.20;99.90
25652;DHT22;13508;50.734;4.232;2024-01-15T18:23:12;2.10;99.90
25652;DHT22;13508;50.734;4.232;2024-01-15T18:26:15;2.00;99.90
25652;DHT22;13508;50.734;4.232;2024-01-15T18:29:19;2.00;99.90
25652;DHT22;13508;50.734;4.232;2024-01-15T18:32:24;2.10;99.90
25652;DHT22;13508;50.734;4.232;2024-01-15T18:35:28;2.10;99.90
25652;DHT22;13508;50.734;4.232;2024-01-15T18:38:32;2.10;99.90
25652;DHT22;13508;50.734;4.232;2024-01-15T18:41:36;2.10;99.90
25652;DHT22;13508;50.734;4.232;2024-01-15T18:44:40;2.00;99.90
25652;DHT22;13508;50.734;4.232;2024-01-15T18:47:43;2.00;99.90
25652;DHT22;13508;50.734;4.232;2024-01-15T18:50:48;1.90;99.90
25652;DHT22;13508;50.734;4.232;2024-01-15T18:53:55;1.90;99.90
25652;DHT22;13508;50.734;4.232;2024-01-15T18:56:59;1.70;99.90
25652;DHT22;13508;50.734;4.232;2024-01-15T19:00:03;1.70;99.90
25652;DHT22;13508;50.734;4.232;2024-01-15T19:03:07;1.90;99.90
25652;DHT22;13508;50.734;4.232;2024-01-15T19:06:13;1.90;99.90
25652;DHT22;13508;50.734;4.232;2024-01-15T19:09:16;1.80;99.90
25652;DHT22;13508;50.734;4.232;2024-01-15T19:12:20;1.80;99.90
25652;DHT22;13508;50.734;4.232;2024-01-15T19:15:23;1.80;99.90
25652;DHT22;13508;50.734;4.232;2024-01-15T19:18:26;1.70;99.90
25652;DHT22;13508;50.734;4.232;2024-01-15T19:21:32;1.70;99.90
25652;DHT22;13508;50.734;4.232;2024-01-15T19:24:39;1.70;99.90
25652;DHT22;13508;50.734;4.232;2024-01-15T19:27:42;1.60;99.90
25652;DHT22;13508;50.734;4.232;2024-01-15T19:30:47;1.70;99.90
25652;DHT22;13508;50.734;4.232;2024-01-15T19:33:55;1.70;99.90
25652;DHT22;13508;50.734;4.232;2024-01-15T19:37:00;1.70;99.90
25652;DHT22;13508;50.734;4.232;2024-01-15T19:40:05;1.60;99.90
25652;DHT22;13508;50.734;4.232;2024-01-15T19:43:10;1.60;99.90
25652;DHT22;13508;50.734;4.232;2024-01-15T19:46:14;1.60;99.90